createdAt,value
2022-09-01T00:00:13.540Z,12.18
2022-09-01T00:02:45.478Z,12.17
2022-09-01T00:05:14.019Z,12.13
2022-09-01T00:07:45.273Z,12.13
2022-09-01T00:10:14.366Z,12.13
2022-09-01T00:12:43.533Z,12.11
2022-09-01T00:15:14.201Z,12.12
2022-09-01T00:17:43.082Z,12.11
2022-09-01T00:20:15.894Z,12.12
2022-09-01T00:22:48.564Z,12.15
2022-09-01T00:25:20.582Z,12.16
2022-09-01T00:27:49.446Z,12.18
2022-09-01T00:30:18.476Z,12.20
2022-09-01T00:32:47.673Z,12.23
2022-09-01T00:35:17.590Z,12.25
2022-09-01T00:37:47.707Z,12.26
2022-09-01T00:40:18.824Z,12.26
2022-09-01T00:42:49.446Z,12.26
2022-09-01T00:45:19.573Z,12.27
2022-09-01T00:47:51.039Z,12.27
2022-09-01T00:50:21.347Z,12.29
2022-09-01T00:52:54.511Z,12.28
2022-09-01T00:55:28.334Z,12.29
2022-09-01T00:57:58.408Z,12.28
2022-09-01T01:00:31.222Z,12.25
2022-09-01T01:03:00.622Z,12.23
2022-09-01T01:05:35.237Z,12.24
2022-09-01T01:08:08.442Z,12.25
2022-09-01T01:10:42.054Z,12.25
2022-09-01T01:13:14.167Z,12.26
2022-09-01T01:15:44.395Z,12.28
2022-09-01T01:18:14.161Z,12.29
2022-09-01T01:21:02.181Z,12.30
2022-09-01T01:23:39.270Z,12.30
2022-09-01T01:26:11.612Z,12.28
2022-09-01T01:28:44.553Z,12.26
2022-09-01T01:31:16.423Z,12.21
2022-09-01T01:33:53.111Z,12.18
2022-09-01T01:36:38.272Z,12.15
2022-09-01T01:39:19.063Z,12.17
2022-09-01T01:41:57.161Z,12.13
2022-09-01T01:44:29.735Z,12.08
2022-09-01T01:47:09.970Z,12.05
2022-09-01T01:49:40.265Z,12.06
2022-09-01T01:52:14.958Z,12.06
2022-09-01T01:54:44.060Z,12.08
2022-09-01T01:57:17.311Z,12.10
2022-09-01T01:59:47.358Z,12.10
2022-09-01T02:02:16.302Z,12.03
2022-09-01T02:04:45.097Z,11.99
2022-09-01T02:07:15.143Z,11.93
2022-09-01T02:09:48.297Z,11.89
2022-09-01T02:12:19.794Z,11.83
2022-09-01T02:14:48.763Z,11.78
2022-09-01T02:17:18.966Z,11.73
2022-09-01T02:19:48.714Z,11.67
2022-09-01T02:22:20.015Z,11.64
2022-09-01T02:24:49.881Z,11.57
2022-09-01T02:27:22.153Z,11.58
2022-09-01T02:29:55.670Z,11.48
2022-09-01T02:32:24.959Z,11.44
2022-09-01T02:34:56.923Z,11.36
2022-09-01T02:37:25.845Z,11.26
2022-09-01T02:39:57.865Z,11.27
2022-09-01T02:42:31.026Z,11.14
2022-09-01T02:44:59.985Z,11.03
2022-09-01T02:47:32.514Z,10.93
2022-09-01T02:50:03.797Z,10.88
2022-09-01T02:52:40.674Z,10.74
2022-09-01T02:55:11.945Z,10.65
2022-09-01T02:57:42.223Z,10.61
2022-09-01T03:00:21.078Z,10.57
2022-09-01T03:02:53.024Z,10.46
2022-09-01T03:05:25.560Z,10.33
2022-09-01T03:07:56.792Z,10.23
2022-09-01T03:10:33.005Z,10.13
2022-09-01T03:13:06.753Z,10.02
2022-09-01T03:15:37.686Z,9.95
2022-09-01T03:18:08.937Z,9.88
2022-09-01T03:20:43.760Z,9.82
2022-09-01T03:23:15.811Z,9.83
2022-09-01T03:25:49.435Z,9.80
2022-09-01T03:28:20.186Z,9.78
2022-09-01T03:30:51.440Z,9.76
2022-09-01T03:33:22.247Z,9.71
2022-09-01T03:35:51.115Z,9.69
2022-09-01T03:38:24.567Z,9.67
2022-09-01T03:40:59.211Z,9.65
2022-09-01T03:43:36.101Z,9.72
2022-09-01T03:46:06.430Z,9.76
2022-09-01T03:48:36.084Z,9.83
2022-09-01T03:51:05.107Z,9.89
2022-09-01T03:53:38.297Z,9.92
2022-09-01T03:56:09.275Z,9.96
2022-09-01T03:58:42.896Z,10.01
2022-09-01T04:01:13.928Z,10.04
2022-09-01T04:03:44.280Z,10.05
2022-09-01T04:06:14.022Z,10.09
2022-09-01T04:08:43.352Z,10.14
2022-09-01T04:11:16.589Z,10.19
2022-09-01T04:13:48.370Z,10.25
2022-09-01T04:16:40.152Z,10.29
2022-09-01T04:19:16.333Z,10.33
2022-09-01T04:21:46.055Z,10.37
2022-09-01T04:24:16.171Z,10.39
2022-09-01T04:26:48.981Z,10.43
2022-09-01T04:29:24.325Z,10.49
2022-09-01T04:31:53.854Z,10.50
2022-09-01T04:34:24.986Z,10.55
2022-09-01T04:36:55.629Z,10.59
2022-09-01T04:39:25.050Z,10.63
2022-09-01T04:41:55.365Z,10.66
2022-09-01T04:44:25.618Z,10.69
2022-09-01T04:46:55.537Z,10.75
2022-09-01T04:49:26.494Z,10.77
2022-09-01T04:51:56.143Z,10.85
2022-09-01T04:54:27.076Z,10.94
2022-09-01T04:56:55.763Z,11.03
2022-09-01T04:59:29.874Z,11.11
2022-09-01T05:02:01.651Z,11.18
2022-09-01T05:04:34.021Z,11.25
2022-09-01T05:07:05.923Z,11.32
2022-09-01T05:09:39.322Z,11.38
2022-09-01T05:12:27.855Z,11.46
2022-09-01T05:15:04.123Z,11.50
2022-09-01T05:17:33.459Z,11.55
2022-09-01T05:20:02.148Z,11.63
2022-09-01T05:22:31.450Z,11.68
2022-09-01T05:25:11.956Z,11.72
2022-09-01T05:27:45.112Z,11.79
2022-09-01T05:30:17.071Z,11.85
2022-09-01T05:32:49.332Z,11.90
2022-09-01T05:35:19.120Z,11.97
2022-09-01T05:37:52.016Z,12.05
2022-09-01T05:40:21.699Z,12.16
2022-09-01T05:42:50.845Z,12.20
2022-09-01T05:45:23.431Z,12.25
2022-09-01T05:47:53.418Z,12.33
2022-09-01T05:50:21.812Z,12.40
2022-09-01T05:52:51.276Z,12.47
2022-09-01T05:55:20.022Z,12.57
2022-09-01T05:57:50.297Z,12.66
2022-09-01T06:00:21.212Z,12.76
2022-09-01T06:02:51.644Z,12.87
2022-09-01T06:05:27.103Z,13.01
2022-09-01T06:07:57.416Z,13.14
2022-09-01T06:10:27.303Z,13.34
2022-09-01T06:12:57.023Z,13.55
2022-09-01T06:15:31.058Z,13.70
2022-09-01T06:18:01.013Z,13.84
2022-09-01T06:20:31.942Z,13.96
2022-09-01T06:23:01.079Z,14.11
2022-09-01T06:25:30.800Z,14.22
2022-09-01T06:28:01.158Z,14.35
2022-09-01T06:30:33.108Z,14.47
2022-09-01T06:33:10.644Z,14.62
2022-09-01T06:35:42.187Z,14.75
2022-09-01T06:38:12.150Z,14.88
2022-09-01T06:40:45.330Z,15.00
2022-09-01T06:43:17.500Z,15.17
2022-09-01T06:45:54.742Z,15.32
2022-09-01T06:48:25.304Z,15.45
2022-09-01T06:51:21.011Z,15.60
2022-09-01T06:53:57.009Z,15.70
2022-09-01T06:56:32.169Z,15.79
2022-09-01T06:59:05.274Z,15.93
2022-09-01T07:04:32.721Z,16.21
2022-09-01T07:10:24.535Z,16.56
2022-09-01T07:13:05.473Z,16.79
2022-09-01T07:18:28.322Z,17.13
2022-09-01T07:24:07.815Z,17.26
2022-09-01T07:26:46.582Z,17.29
2022-09-01T07:29:16.809Z,17.43
2022-09-01T07:31:49.495Z,17.59
2022-09-01T07:34:38.571Z,17.79
2022-09-01T07:41:43.316Z,16.08
2022-09-01T07:43:09.904Z,18.15
2022-09-01T07:49:29.427Z,18.48
2022-09-01T07:51:51.432Z,18.61
2022-09-01T07:54:24.109Z,18.65
2022-09-01T07:56:54.891Z,18.84
2022-09-01T07:59:24.357Z,18.82
2022-09-01T08:02:04.808Z,18.83
2022-09-01T08:04:34.625Z,18.92
2022-09-01T08:07:06.256Z,19.12
2022-09-01T08:09:44.122Z,19.18
2022-09-01T08:12:14.453Z,19.46
2022-09-01T08:17:51.285Z,19.81
2022-09-01T08:20:20.663Z,20.08
2022-09-01T08:22:55.370Z,20.28
2022-09-01T08:25:51.854Z,20.39
2022-09-01T08:28:29.202Z,20.45
2022-09-01T08:31:00.253Z,20.50
2022-09-01T08:33:31.233Z,20.56
2022-09-01T08:35:59.733Z,20.70
2022-09-01T08:38:30.231Z,20.95
2022-09-01T08:41:01.307Z,21.10
2022-09-01T08:43:49.261Z,21.11
2022-09-01T08:46:24.105Z,21.20
2022-09-01T08:49:24.324Z,21.34
2022-09-01T08:52:24.143Z,21.49
2022-09-01T08:55:01.888Z,21.63
2022-09-01T08:57:35.716Z,21.92
2022-09-01T09:00:25.728Z,22.25
2022-09-01T09:03:12.293Z,22.44
2022-09-01T09:05:57.460Z,22.64
2022-09-01T09:08:58.069Z,22.76
2022-09-01T09:11:52.710Z,22.86
2022-09-01T09:14:34.407Z,22.88
2022-09-01T09:17:04.568Z,22.79
2022-09-01T09:19:38.360Z,22.80
2022-09-01T09:22:11.305Z,22.95
2022-09-01T09:24:50.478Z,23.19
2022-09-01T09:27:22.876Z,23.34
2022-09-01T09:29:53.771Z,23.45
2022-09-01T09:32:35.266Z,23.57
2022-09-01T09:35:25.129Z,23.59
2022-09-01T09:37:56.128Z,23.76
2022-09-01T09:40:27.119Z,23.90
2022-09-01T09:43:08.447Z,24.09
2022-09-01T09:45:42.058Z,24.21
2022-09-01T09:48:29.005Z,24.12
2022-09-01T09:50:58.184Z,24.15
2022-09-01T09:53:30.743Z,24.24
2022-09-01T09:56:02.337Z,24.45
2022-09-01T09:58:40.827Z,24.71
2022-09-01T10:01:17.735Z,24.78
2022-09-01T10:03:50.458Z,24.62
2022-09-01T10:06:34.521Z,24.76
2022-09-01T10:09:05.268Z,25.16
2022-09-01T10:11:41.636Z,24.70
2022-09-01T10:14:47.636Z,24.37
2022-09-01T10:17:13.552Z,24.75
2022-09-01T10:19:54.377Z,25.23
2022-09-01T10:22:25.114Z,25.12
2022-09-01T10:24:54.019Z,24.51
2022-09-01T10:27:28.787Z,24.20
2022-09-01T10:30:12.622Z,24.41
2022-09-01T10:32:52.429Z,24.96
2022-09-01T10:35:27.307Z,25.44
2022-09-01T10:37:59.348Z,25.27
2022-09-01T10:40:43.923Z,24.43
2022-09-01T10:43:46.830Z,23.54
2022-09-01T10:46:51.169Z,23.28
2022-09-01T10:50:01.270Z,23.98
2022-09-01T10:52:54.156Z,25.00
2022-09-01T10:55:25.835Z,25.40
2022-09-01T11:01:25.348Z,26.09
2022-09-01T11:04:05.236Z,26.29
2022-09-01T11:07:38.825Z,26.66
2022-09-01T11:10:32.075Z,26.23
2022-09-01T11:13:23.983Z,25.01
2022-09-01T11:15:53.031Z,24.06
2022-09-01T11:18:28.014Z,23.37
2022-09-01T11:21:16.369Z,22.71
2022-09-01T11:23:46.448Z,23.01
2022-09-01T11:26:48.313Z,23.49
2022-09-01T11:29:50.026Z,23.28
2022-09-01T11:32:25.539Z,24.00
2022-09-01T11:34:57.034Z,24.14
2022-09-01T11:37:27.951Z,23.69
2022-09-01T11:40:00.590Z,23.03
2022-09-01T11:42:36.236Z,22.38
2022-09-01T11:45:20.556Z,21.75
2022-09-01T11:47:53.137Z,21.28
2022-09-01T11:50:24.217Z,20.90
2022-09-01T11:53:04.672Z,20.65
2022-09-01T11:55:37.754Z,20.60
2022-09-01T11:58:07.239Z,20.62
2022-09-01T12:00:39.183Z,20.92
2022-09-01T12:03:23.457Z,21.02
2022-09-01T12:06:00.685Z,21.13
2022-09-01T12:08:34.948Z,21.34
2022-09-01T12:11:06.055Z,21.77
2022-09-01T12:13:36.059Z,22.55
2022-09-01T12:16:18.085Z,23.38
2022-09-01T12:18:49.350Z,24.11
2022-09-01T12:21:23.136Z,24.64
2022-09-01T12:23:53.895Z,24.50
2022-09-01T12:26:26.038Z,24.01
2022-09-01T12:28:54.941Z,23.67
2022-09-01T12:31:27.429Z,24.03
2022-09-01T12:34:04.929Z,24.65
2022-09-01T12:36:37.089Z,25.29
2022-09-01T12:39:25.152Z,25.58
2022-09-01T12:42:06.865Z,25.49
2022-09-01T12:44:44.266Z,25.63
2022-09-01T12:47:15.939Z,25.73
2022-09-01T12:49:50.479Z,25.76
2022-09-01T12:52:26.189Z,25.52
2022-09-01T12:55:47.429Z,24.79
2022-09-01T12:58:06.448Z,24.16
2022-09-01T13:00:37.588Z,23.88
2022-09-01T13:03:14.307Z,23.42
2022-09-01T13:05:44.595Z,22.97
2022-09-01T13:08:15.991Z,22.68
2022-09-01T13:10:48.746Z,23.02
2022-09-01T13:13:19.281Z,22.80
2022-09-01T13:15:50.461Z,22.48
2022-09-01T13:18:20.640Z,22.09
2022-09-01T13:20:49.946Z,21.77
2022-09-01T13:23:19.182Z,21.51
2022-09-01T13:25:49.668Z,21.31
2022-09-01T13:28:20.777Z,21.34
2022-09-01T13:36:46.455Z,24.00
2022-09-01T13:39:21.350Z,24.06
2022-09-01T13:41:51.589Z,23.39
2022-09-01T13:44:20.587Z,22.72
2022-09-01T13:50:06.470Z,21.62
2022-09-01T13:52:27.218Z,21.22
2022-09-01T13:54:56.109Z,21.49
2022-09-01T13:57:26.366Z,22.15
2022-09-01T13:59:56.546Z,22.77
2022-09-01T14:02:27.680Z,23.26
2022-09-01T14:04:56.456Z,23.68
2022-09-01T14:07:25.947Z,23.90
2022-09-01T14:09:55.246Z,24.05
2022-09-01T14:12:26.540Z,24.21
2022-09-01T14:17:44.829Z,24.26
2022-09-01T14:20:18.513Z,24.36
2022-09-01T14:22:48.405Z,24.42
2022-09-01T14:25:18.215Z,24.19
2022-09-01T14:27:50.629Z,23.86
2022-09-01T14:30:23.576Z,23.60
2022-09-01T14:32:54.556Z,23.11
2022-09-01T14:35:26.560Z,22.80
2022-09-01T14:37:58.813Z,22.84
2022-09-01T14:40:29.532Z,22.94
2022-09-01T14:42:59.811Z,22.85
2022-09-01T14:45:29.885Z,22.34
2022-09-01T14:48:01.248Z,22.00
2022-09-01T14:50:32.928Z,21.69
2022-09-01T14:53:03.403Z,21.33
2022-09-01T14:55:34.391Z,21.30
2022-09-01T14:58:05.805Z,21.33
2022-09-01T15:00:37.252Z,21.10
2022-09-01T15:03:06.716Z,20.84
2022-09-01T15:05:38.338Z,20.74
2022-09-01T15:08:15.465Z,20.97
2022-09-01T15:10:47.820Z,21.32
2022-09-01T15:13:18.531Z,21.51
2022-09-01T15:15:47.930Z,21.61
2022-09-01T15:18:17.229Z,21.76
2022-09-01T15:20:47.086Z,21.80
2022-09-01T15:23:18.621Z,21.75
2022-09-01T15:25:48.049Z,21.64
2022-09-01T15:28:18.575Z,21.47
2022-09-01T15:30:49.229Z,21.43
2022-09-01T15:33:19.561Z,21.40
2022-09-01T15:35:48.675Z,21.28
2022-09-01T15:38:18.393Z,21.23
2022-09-01T15:40:57.722Z,21.15
2022-09-01T15:43:32.013Z,21.07
2022-09-01T15:46:02.316Z,21.08
2022-09-01T15:48:31.143Z,21.05
2022-09-01T15:51:25.005Z,20.99
2022-09-01T15:53:57.719Z,20.93
2022-09-01T15:56:26.629Z,20.84
2022-09-01T15:59:01.679Z,20.81
2022-09-01T16:01:33.425Z,20.71
2022-09-01T16:04:03.659Z,20.64
2022-09-01T16:06:33.679Z,20.51
2022-09-01T16:09:02.887Z,20.40
2022-09-01T16:11:31.778Z,20.24
2022-09-01T16:14:02.348Z,20.10
2022-09-01T16:16:42.508Z,19.97
2022-09-01T16:19:23.017Z,19.84
2022-09-01T16:21:59.179Z,19.69
2022-09-01T16:24:28.513Z,19.57
2022-09-01T16:26:58.347Z,19.47
2022-09-01T16:29:35.972Z,19.35
2022-09-01T16:32:04.902Z,19.28
2022-09-01T16:34:34.979Z,19.20
2022-09-01T16:37:12.051Z,19.08
2022-09-01T16:39:47.341Z,18.97
2022-09-01T16:42:28.513Z,18.87
2022-09-01T16:45:06.146Z,18.79
2022-09-01T16:47:49.191Z,18.68
2022-09-01T16:50:28.777Z,18.56
2022-09-01T16:53:11.196Z,18.46
2022-09-01T16:55:51.747Z,18.40
2022-09-01T16:58:24.703Z,18.34
2022-09-01T17:01:12.973Z,18.26
2022-09-01T17:03:56.222Z,18.16
2022-09-01T17:06:32.028Z,18.08
2022-09-01T17:09:11.433Z,18.00
2022-09-01T17:11:49.136Z,17.88
2022-09-01T17:14:25.640Z,17.78
2022-09-01T17:17:08.937Z,17.71
2022-09-01T17:19:40.875Z,17.57
2022-09-01T17:22:11.655Z,17.40
2022-09-01T17:24:42.965Z,17.23
2022-09-01T17:27:15.899Z,17.06
2022-09-01T17:29:47.428Z,16.93
2022-09-01T17:32:41.688Z,16.75
2022-09-01T17:35:24.555Z,16.56
2022-09-01T17:38:04.858Z,16.41
2022-09-01T17:40:53.799Z,16.25
2022-09-01T17:43:30.075Z,16.07
2022-09-01T17:46:09.691Z,15.90
2022-09-01T17:48:50.975Z,15.69
2022-09-01T17:51:29.978Z,15.56
2022-09-01T17:54:10.068Z,15.40
2022-09-01T17:56:48.894Z,15.21
2022-09-01T17:59:28.787Z,15.09
2022-09-01T18:02:12.212Z,15.04
2022-09-01T18:04:53.317Z,14.99
2022-09-01T18:07:36.385Z,14.90
2022-09-01T18:10:09.091Z,14.83
2022-09-01T18:12:40.782Z,14.76
2022-09-01T18:15:13.805Z,14.72
2022-09-01T18:17:45.964Z,14.68
2022-09-01T18:20:23.117Z,14.64
2022-09-01T18:22:57.230Z,14.62
2022-09-01T18:25:36.959Z,14.61
2022-09-01T18:28:05.529Z,14.60
2022-09-01T18:30:52.582Z,14.56
2022-09-01T18:33:29.113Z,14.48
2022-09-01T18:36:25.934Z,14.32
2022-09-01T18:38:59.367Z,14.12
2022-09-01T18:41:52.316Z,13.94
2022-09-01T18:44:34.994Z,13.75
2022-09-01T18:47:05.673Z,13.57
2022-09-01T18:49:48.006Z,13.43
2022-09-01T18:52:28.066Z,13.32
2022-09-01T18:55:05.283Z,13.30
2022-09-01T18:57:38.848Z,13.39
2022-09-01T19:00:17.765Z,13.41
2022-09-01T19:03:06.019Z,13.39
2022-09-01T19:05:46.200Z,13.39
2022-09-01T19:08:28.503Z,13.45
2022-09-01T19:11:05.271Z,13.50
2022-09-01T19:13:54.216Z,13.51
2022-09-01T19:16:36.709Z,13.49
2022-09-01T19:19:17.050Z,13.43
2022-09-01T19:21:48.041Z,13.42
2022-09-01T19:24:27.697Z,13.47
2022-09-01T19:27:01.808Z,13.51
2022-09-01T19:29:34.714Z,13.53
2022-09-01T19:32:10.331Z,13.49
2022-09-01T19:34:44.381Z,13.39
2022-09-01T19:37:14.288Z,13.26
2022-09-01T19:39:53.380Z,13.12
2022-09-01T19:42:27.785Z,12.95
2022-09-01T19:45:07.039Z,12.82
2022-09-01T19:47:41.356Z,12.69
2022-09-01T19:50:17.892Z,12.59
2022-09-01T19:52:56.977Z,12.43
2022-09-01T19:55:33.433Z,12.26
2022-09-01T19:58:05.972Z,12.09
2022-09-01T20:00:50.667Z,11.95
2022-09-01T20:03:23.769Z,11.76
2022-09-01T20:05:58.309Z,11.65
2022-09-01T20:08:33.756Z,11.59
2022-09-01T20:11:10.341Z,11.52
2022-09-01T20:13:52.377Z,11.45
2022-09-01T20:16:25.774Z,11.33
2022-09-01T20:19:01.149Z,11.21
2022-09-01T20:21:30.197Z,11.12
2022-09-01T20:24:05.608Z,11.11
2022-09-01T20:26:38.607Z,11.09
2022-09-01T20:29:14.133Z,11.04
2022-09-01T20:31:46.471Z,10.97
2022-09-01T20:34:22.993Z,10.90
2022-09-01T20:36:56.284Z,10.85
2022-09-01T20:39:50.814Z,10.81
2022-09-01T20:42:31.701Z,10.79
2022-09-01T20:45:01.805Z,10.73
2022-09-01T20:47:32.500Z,10.66
2022-09-01T20:50:05.426Z,10.59
2022-09-01T20:52:41.015Z,10.53
2022-09-01T20:55:14.407Z,10.45
2022-09-01T20:57:56.235Z,10.36
2022-09-01T21:00:27.072Z,10.31
2022-09-01T21:03:03.024Z,10.25
2022-09-01T21:05:46.174Z,10.23
2022-09-01T21:08:32.489Z,10.17
2022-09-01T21:11:13.935Z,10.11
2022-09-01T21:13:56.552Z,10.06
2022-09-01T21:16:35.883Z,10.00
2022-09-01T21:19:11.961Z,9.93
2022-09-01T21:21:51.538Z,9.88
2022-09-01T21:24:20.790Z,9.87
2022-09-01T21:26:50.191Z,9.84
2022-09-01T21:29:31.349Z,9.85
2022-09-01T21:32:01.168Z,9.83
2022-09-01T21:34:30.188Z,9.79
2022-09-01T21:36:58.816Z,9.72
2022-09-01T21:39:27.439Z,9.68
2022-09-01T21:41:56.283Z,9.64
2022-09-01T21:44:26.574Z,9.64
2022-09-01T21:46:55.104Z,9.61
2022-09-01T21:49:23.770Z,9.60
2022-09-01T21:51:53.200Z,9.57
2022-09-01T21:54:21.772Z,9.54
2022-09-01T21:56:53.436Z,9.49
2022-09-01T21:59:22.582Z,9.44
2022-09-01T22:01:52.687Z,9.39
2022-09-01T22:04:23.229Z,9.36
2022-09-01T22:06:52.718Z,9.30
2022-09-01T22:09:22.043Z,9.27
2022-09-01T22:11:52.176Z,9.24
2022-09-01T22:14:22.148Z,9.23
2022-09-01T22:16:52.810Z,9.22
2022-09-01T22:19:21.338Z,9.18
2022-09-01T22:21:50.295Z,9.17
2022-09-01T22:24:19.693Z,9.17
2022-09-01T22:26:48.639Z,9.19
2022-09-01T22:29:18.182Z,9.18
2022-09-01T22:31:46.679Z,9.13
2022-09-01T22:34:16.407Z,9.08
2022-09-01T22:36:47.567Z,9.03
2022-09-01T22:39:17.732Z,8.97
2022-09-01T22:41:46.756Z,8.91
2022-09-01T22:44:15.335Z,8.86
2022-09-01T22:46:44.216Z,8.82
2022-09-01T22:49:13.163Z,8.77
2022-09-01T22:51:44.095Z,8.74
2022-09-01T22:54:13.754Z,8.70
2022-09-01T22:56:43.118Z,8.69
2022-09-01T22:59:15.052Z,8.71
2022-09-01T23:01:46.128Z,8.72
2022-09-01T23:04:16.931Z,8.71
2022-09-01T23:06:49.777Z,8.70
2022-09-01T23:09:20.158Z,8.65
2022-09-01T23:11:49.850Z,8.55
2022-09-01T23:14:19.730Z,8.47
2022-09-01T23:16:51.360Z,8.37
2022-09-01T23:19:20.461Z,8.29
2022-09-01T23:21:51.541Z,8.22
2022-09-01T23:24:20.450Z,8.21
2022-09-01T23:26:50.153Z,8.19
2022-09-01T23:29:18.997Z,8.17
2022-09-01T23:31:47.813Z,8.17
2022-09-01T23:34:17.783Z,8.13
2022-09-01T23:36:46.992Z,8.09
2022-09-01T23:39:16.999Z,8.05
2022-09-01T23:41:45.800Z,7.96
2022-09-01T23:44:14.700Z,7.87
2022-09-01T23:46:45.559Z,7.82
2022-09-01T23:49:15.959Z,7.82
2022-09-01T23:51:45.208Z,7.83
2022-09-01T23:54:14.618Z,7.79
2022-09-01T23:56:44.332Z,7.76
2022-09-01T23:59:13.337Z,7.74
